New Orleans, Louisiana
Traffic Map
Current Weather Conditions
New Orleans, Louisiana
Clear
Clear
19°
Feels Like: 19°
Wind Chill: 19° Ceiling: Unl
Heat Index: 19° Visibility: 10mi
Dew Point: 12° Wind: 7mph
Humidity: 64% Direction: 40° (NE)
Pressure: 30.05in Gusts: 0mph
Raw Report DataKVSH 201255Z AUTO 04006KT 10SM CLR 19/12 A3005 RMK AO1
Traffic Incident Summary
Active as of:
Severity:
Category:
InformationThere was an issue retrieving the traffic information for this location. Please try a different location or try again shortly.
Advertisements
Track Severe Weather on mobile